sensor_id;sensor_type;location;lat;lon;timestamp;P1;durP1;ratioP1;P2;durP2;ratioP2
6356;SDS011;3211;53.452;-2.264;2024-03-22T00:01:27;1.53;;;1.30;;
6356;SDS011;3211;53.452;-2.264;2024-03-22T00:04:14;1.23;;;1.13;;
6356;SDS011;3211;53.452;-2.264;2024-03-22T00:07:01;1.00;;;0.93;;
6356;SDS011;3211;53.452;-2.264;2024-03-22T00:09:50;1.60;;;1.10;;
6356;SDS011;3211;53.452;-2.264;2024-03-22T00:12:36;3.00;;;1.10;;
6356;SDS011;3211;53.452;-2.264;2024-03-22T00:15:24;3.73;;;1.20;;
6356;SDS011;3211;53.452;-2.264;2024-03-22T00:18:10;1.20;;;1.10;;
6356;SDS011;3211;53.452;-2.264;2024-03-22T00:20:57;1.17;;;1.00;;
6356;SDS011;3211;53.452;-2.264;2024-03-22T00:23:43;1.10;;;1.00;;
6356;SDS011;3211;53.452;-2.264;2024-03-22T00:26:32;1.67;;;1.07;;
6356;SDS011;3211;53.452;-2.264;2024-03-22T00:29:19;3.00;;;2.37;;
6356;SDS011;3211;53.452;-2.264;2024-03-22T00:32:06;1.30;;;1.20;;
6356;SDS011;3211;53.452;-2.264;2024-03-22T00:34:53;2.00;;;1.20;;
6356;SDS011;3211;53.452;-2.264;2024-03-22T00:37:40;1.40;;;1.30;;
6356;SDS011;3211;53.452;-2.264;2024-03-22T00:40:26;1.37;;;1.27;;
6356;SDS011;3211;53.452;-2.264;2024-03-22T00:43:15;1.20;;;1.10;;
6356;SDS011;3211;53.452;-2.264;2024-03-22T00:46:01;1.80;;;1.10;;
6356;SDS011;3211;53.452;-2.264;2024-03-22T00:48:48;1.90;;;1.10;;
6356;SDS011;3211;53.452;-2.264;2024-03-22T00:51:35;2.17;;;1.30;;
6356;SDS011;3211;53.452;-2.264;2024-03-22T00:54:22;2.27;;;1.20;;
6356;SDS011;3211;53.452;-2.264;2024-03-22T00:57:08;1.43;;;1.13;;
6356;SDS011;3211;53.452;-2.264;2024-03-22T00:59:56;1.90;;;1.33;;
6356;SDS011;3211;53.452;-2.264;2024-03-22T01:02:43;1.70;;;1.40;;
6356;SDS011;3211;53.452;-2.264;2024-03-22T01:05:30;1.50;;;1.00;;
6356;SDS011;3211;53.452;-2.264;2024-03-22T01:08:16;2.60;;;1.17;;
6356;SDS011;3211;53.452;-2.264;2024-03-22T01:11:04;2.37;;;1.40;;
6356;SDS011;3211;53.452;-2.264;2024-03-22T01:13:51;1.73;;;1.30;;
6356;SDS011;3211;53.452;-2.264;2024-03-22T01:16:38;1.20;;;1.00;;
6356;SDS011;3211;53.452;-2.264;2024-03-22T01:19:27;1.63;;;1.30;;
6356;SDS011;3211;53.452;-2.264;2024-03-22T01:22:13;1.20;;;1.03;;
6356;SDS011;3211;53.452;-2.264;2024-03-22T01:25:01;5.57;;;1.33;;
6356;SDS011;3211;53.452;-2.264;2024-03-22T01:27:47;1.20;;;1.10;;
6356;SDS011;3211;53.452;-2.264;2024-03-22T01:30:34;1.50;;;1.33;;
6356;SDS011;3211;53.452;-2.264;2024-03-22T01:33:23;2.50;;;1.47;;
6356;SDS011;3211;53.452;-2.264;2024-03-22T01:36:10;1.30;;;1.20;;
6356;SDS011;3211;53.452;-2.264;2024-03-22T01:38:56;3.87;;;1.50;;
6356;SDS011;3211;53.452;-2.264;2024-03-22T01:41:44;1.10;;;1.00;;
6356;SDS011;3211;53.452;-2.264;2024-03-22T01:44:31;3.77;;;1.80;;
6356;SDS011;3211;53.452;-2.264;2024-03-22T01:47:19;2.03;;;1.60;;
6356;SDS011;3211;53.452;-2.264;2024-03-22T01:50:07;3.53;;;1.63;;
6356;SDS011;3211;53.452;-2.264;2024-03-22T01:52:56;3.23;;;1.80;;
6356;SDS011;3211;53.452;-2.264;2024-03-22T01:55:43;6.73;;;1.77;;
6356;SDS011;3211;53.452;-2.264;2024-03-22T01:58:30;2.63;;;1.70;;
6356;SDS011;3211;53.452;-2.264;2024-03-22T02:01:16;6.53;;;2.17;;
6356;SDS011;3211;53.452;-2.264;2024-03-22T02:04:04;3.83;;;1.53;;
6356;SDS011;3211;53.452;-2.264;2024-03-22T02:06:51;3.70;;;1.47;;
6356;SDS011;3211;53.452;-2.264;2024-03-22T02:09:39;5.07;;;1.90;;
6356;SDS011;3211;53.452;-2.264;2024-03-22T02:12:25;3.57;;;1.77;;
6356;SDS011;3211;53.452;-2.264;2024-03-22T02:15:12;5.93;;;2.17;;
6356;SDS011;3211;53.452;-2.264;2024-03-22T02:17:58;4.80;;;1.67;;
6356;SDS011;3211;53.452;-2.264;2024-03-22T02:20:45;5.53;;;1.53;;
6356;SDS011;3211;53.452;-2.264;2024-03-22T02:23:33;5.13;;;1.67;;
6356;SDS011;3211;53.452;-2.264;2024-03-22T02:26:21;8.63;;;1.83;;
6356;SDS011;3211;53.452;-2.264;2024-03-22T02:29:07;5.57;;;2.10;;
6356;SDS011;3211;53.452;-2.264;2024-03-22T02:31:55;5.30;;;2.40;;
6356;SDS011;3211;53.452;-2.264;2024-03-22T02:34:43;13.00;;;2.30;;
6356;SDS011;3211;53.452;-2.264;2024-03-22T02:37:30;11.13;;;2.90;;
6356;SDS011;3211;53.452;-2.264;2024-03-22T02:40:18;5.07;;;2.17;;
6356;SDS011;3211;53.452;-2.264;2024-03-22T02:43:06;4.23;;;1.70;;
6356;SDS011;3211;53.452;-2.264;2024-03-22T02:45:52;4.20;;;2.30;;
6356;SDS011;3211;53.452;-2.264;2024-03-22T02:48:39;4.87;;;1.97;;
6356;SDS011;3211;53.452;-2.264;2024-03-22T02:51:26;7.03;;;2.00;;
6356;SDS011;3211;53.452;-2.264;2024-03-22T02:54:13;8.93;;;2.30;;
6356;SDS011;3211;53.452;-2.264;2024-03-22T02:57:01;3.00;;;2.27;;
6356;SDS011;3211;53.452;-2.264;2024-03-22T02:59:48;6.87;;;2.00;;
6356;SDS011;3211;53.452;-2.264;2024-03-22T03:02:34;5.50;;;2.37;;
6356;SDS011;3211;53.452;-2.264;2024-03-22T03:05:22;7.67;;;2.30;;
6356;SDS011;3211;53.452;-2.264;2024-03-22T03:08:08;6.30;;;2.10;;
6356;SDS011;3211;53.452;-2.264;2024-03-22T03:10:56;5.13;;;1.70;;
6356;SDS011;3211;53.452;-2.264;2024-03-22T03:13:43;2.30;;;1.47;;
6356;SDS011;3211;53.452;-2.264;2024-03-22T03:16:30;4.27;;;2.10;;
6356;SDS011;3211;53.452;-2.264;2024-03-22T03:19:17;3.70;;;1.80;;
6356;SDS011;3211;53.452;-2.264;2024-03-22T03:22:04;3.13;;;1.70;;
6356;SDS011;3211;53.452;-2.264;2024-03-22T03:24:50;5.27;;;1.63;;
6356;SDS011;3211;53.452;-2.264;2024-03-22T03:27:37;4.83;;;1.80;;
6356;SDS011;3211;53.452;-2.264;2024-03-22T03:30:25;10.90;;;2.37;;
6356;SDS011;3211;53.452;-2.264;2024-03-22T03:33:12;5.00;;;1.80;;
6356;SDS011;3211;53.452;-2.264;2024-03-22T03:35:58;7.00;;;1.80;;
6356;SDS011;3211;53.452;-2.264;2024-03-22T03:38:46;8.13;;;2.40;;
6356;SDS011;3211;53.452;-2.264;2024-03-22T03:41:32;13.23;;;3.67;;
6356;SDS011;3211;53.452;-2.264;2024-03-22T03:44:19;7.83;;;2.23;;
6356;SDS011;3211;53.452;-2.264;2024-03-22T03:47:07;9.00;;;2.13;;
6356;SDS011;3211;53.452;-2.264;2024-03-22T03:49:54;8.03;;;2.50;;
6356;SDS011;3211;53.452;-2.264;2024-03-22T03:52:40;11.50;;;2.50;;
6356;SDS011;3211;53.452;-2.264;2024-03-22T03:55:28;18.20;;;2.80;;
6356;SDS011;3211;53.452;-2.264;2024-03-22T03:58:14;10.47;;;2.50;;
6356;SDS011;3211;53.452;-2.264;2024-03-22T04:01:04;9.63;;;2.80;;
6356;SDS011;3211;53.452;-2.264;2024-03-22T04:03:52;10.87;;;3.00;;
6356;SDS011;3211;53.452;-2.264;2024-03-22T04:06:40;14.07;;;3.17;;
6356;SDS011;3211;53.452;-2.264;2024-03-22T04:09:26;11.53;;;3.10;;
6356;SDS011;3211;53.452;-2.264;2024-03-22T04:12:13;12.90;;;2.43;;
6356;SDS011;3211;53.452;-2.264;2024-03-22T04:14:59;17.60;;;2.73;;
6356;SDS011;3211;53.452;-2.264;2024-03-22T04:17:47;14.57;;;3.10;;
6356;SDS011;3211;53.452;-2.264;2024-03-22T04:20:34;19.03;;;4.13;;
6356;SDS011;3211;53.452;-2.264;2024-03-22T04:23:22;20.80;;;5.03;;
6356;SDS011;3211;53.452;-2.264;2024-03-22T04:26:08;18.13;;;4.07;;
6356;SDS011;3211;53.452;-2.264;2024-03-22T04:28:55;19.80;;;4.17;;
6356;SDS011;3211;53.452;-2.264;2024-03-22T04:31:42;15.60;;;3.67;;
6356;SDS011;3211;53.452;-2.264;2024-03-22T04:34:29;22.20;;;5.03;;
6356;SDS011;3211;53.452;-2.264;2024-03-22T04:37:16;11.23;;;2.73;;
6356;SDS011;3211;53.452;-2.264;2024-03-22T04:40:04;20.93;;;3.27;;
6356;SDS011;3211;53.452;-2.264;2024-03-22T04:42:52;22.87;;;4.83;;
6356;SDS011;3211;53.452;-2.264;2024-03-22T04:45:40;24.43;;;3.87;;
6356;SDS011;3211;53.452;-2.264;2024-03-22T04:48:28;14.40;;;3.10;;
6356;SDS011;3211;53.452;-2.264;2024-03-22T04:51:14;20.47;;;4.40;;
6356;SDS011;3211;53.452;-2.264;2024-03-22T04:54:03;18.53;;;3.50;;
6356;SDS011;3211;53.452;-2.264;2024-03-22T04:56:49;17.07;;;3.77;;
6356;SDS011;3211;53.452;-2.264;2024-03-22T04:59:36;19.67;;;4.63;;
6356;SDS011;3211;53.452;-2.264;2024-03-22T05:02:23;22.30;;;4.37;;
6356;SDS011;3211;53.452;-2.264;2024-03-22T05:05:10;18.60;;;4.00;;
6356;SDS011;3211;53.452;-2.264;2024-03-22T05:07:56;14.93;;;3.60;;
6356;SDS011;3211;53.452;-2.264;2024-03-22T05:10:45;16.33;;;4.53;;
6356;SDS011;3211;53.452;-2.264;2024-03-22T05:13:32;12.03;;;3.33;;
6356;SDS011;3211;53.452;-2.264;2024-03-22T05:16:18;19.40;;;4.03;;
6356;SDS011;3211;53.452;-2.264;2024-03-22T05:19:06;21.23;;;3.97;;
6356;SDS011;3211;53.452;-2.264;2024-03-22T05:21:52;14.47;;;3.47;;
6356;SDS011;3211;53.452;-2.264;2024-03-22T05:24:39;21.30;;;3.20;;
6356;SDS011;3211;53.452;-2.264;2024-03-22T05:27:27;17.03;;;4.10;;
6356;SDS011;3211;53.452;-2.264;2024-03-22T05:30:14;17.63;;;4.27;;
6356;SDS011;3211;53.452;-2.264;2024-03-22T05:33:00;23.40;;;4.37;;
6356;SDS011;3211;53.452;-2.264;2024-03-22T05:35:48;26.37;;;4.90;;
6356;SDS011;3211;53.452;-2.264;2024-03-22T05:38:34;20.97;;;4.63;;
6356;SDS011;3211;53.452;-2.264;2024-03-22T05:41:21;27.67;;;5.30;;
6356;SDS011;3211;53.452;-2.264;2024-03-22T05:44:09;15.53;;;4.57;;
6356;SDS011;3211;53.452;-2.264;2024-03-22T05:46:56;23.97;;;4.30;;
6356;SDS011;3211;53.452;-2.264;2024-03-22T05:49:43;23.63;;;4.07;;
6356;SDS011;3211;53.452;-2.264;2024-03-22T05:52:29;20.13;;;3.80;;
6356;SDS011;3211;53.452;-2.264;2024-03-22T05:55:16;22.37;;;4.37;;
6356;SDS011;3211;53.452;-2.264;2024-03-22T05:58:03;21.07;;;5.53;;
6356;SDS011;3211;53.452;-2.264;2024-03-22T06:00:52;16.80;;;3.30;;
6356;SDS011;3211;53.452;-2.264;2024-03-22T06:03:38;22.93;;;4.67;;
6356;SDS011;3211;53.452;-2.264;2024-03-22T06:06:26;22.20;;;4.67;;
6356;SDS011;3211;53.452;-2.264;2024-03-22T06:09:13;17.40;;;4.43;;
6356;SDS011;3211;53.452;-2.264;2024-03-22T06:12:04;27.03;;;4.17;;
6356;SDS011;3211;53.452;-2.264;2024-03-22T06:14:52;26.97;;;4.07;;
6356;SDS011;3211;53.452;-2.264;2024-03-22T06:17:40;17.53;;;4.30;;
6356;SDS011;3211;53.452;-2.264;2024-03-22T06:20:28;11.70;;;3.50;;
6356;SDS011;3211;53.452;-2.264;2024-03-22T06:23:15;23.63;;;4.17;;
6356;SDS011;3211;53.452;-2.264;2024-03-22T06:26:03;14.37;;;4.50;;
6356;SDS011;3211;53.452;-2.264;2024-03-22T06:28:49;20.60;;;4.67;;
6356;SDS011;3211;53.452;-2.264;2024-03-22T06:31:36;20.73;;;4.80;;
6356;SDS011;3211;53.452;-2.264;2024-03-22T06:34:24;22.43;;;3.53;;
6356;SDS011;3211;53.452;-2.264;2024-03-22T06:37:11;21.43;;;3.50;;
6356;SDS011;3211;53.452;-2.264;2024-03-22T06:39:57;23.57;;;4.10;;
6356;SDS011;3211;53.452;-2.264;2024-03-22T06:42:45;23.60;;;4.30;;
6356;SDS011;3211;53.452;-2.264;2024-03-22T06:45:31;23.10;;;3.90;;
6356;SDS011;3211;53.452;-2.264;2024-03-22T06:48:18;26.33;;;4.57;;
6356;SDS011;3211;53.452;-2.264;2024-03-22T06:51:06;29.60;;;4.70;;
6356;SDS011;3211;53.452;-2.264;2024-03-22T06:53:53;16.20;;;4.00;;
6356;SDS011;3211;53.452;-2.264;2024-03-22T06:56:39;16.37;;;4.70;;
6356;SDS011;3211;53.452;-2.264;2024-03-22T06:59:27;18.63;;;4.83;;
6356;SDS011;3211;53.452;-2.264;2024-03-22T07:02:13;16.50;;;4.30;;
6356;SDS011;3211;53.452;-2.264;2024-03-22T07:05:00;13.13;;;3.57;;
6356;SDS011;3211;53.452;-2.264;2024-03-22T07:07:48;21.30;;;4.73;;
6356;SDS011;3211;53.452;-2.264;2024-03-22T07:10:38;22.47;;;5.47;;
6356;SDS011;3211;53.452;-2.264;2024-03-22T07:13:25;33.23;;;6.47;;
6356;SDS011;3211;53.452;-2.264;2024-03-22T07:16:12;19.77;;;4.50;;
6356;SDS011;3211;53.452;-2.264;2024-03-22T07:18:58;23.10;;;4.27;;
6356;SDS011;3211;53.452;-2.264;2024-03-22T07:21:45;16.60;;;4.13;;
6356;SDS011;3211;53.452;-2.264;2024-03-22T07:24:33;22.93;;;3.80;;
6356;SDS011;3211;53.452;-2.264;2024-03-22T07:27:20;21.70;;;4.87;;
6356;SDS011;3211;53.452;-2.264;2024-03-22T07:30:08;24.67;;;4.60;;
6356;SDS011;3211;53.452;-2.264;2024-03-22T07:32:55;24.20;;;4.63;;
6356;SDS011;3211;53.452;-2.264;2024-03-22T07:35:42;26.77;;;4.50;;
6356;SDS011;3211;53.452;-2.264;2024-03-22T07:38:28;18.90;;;4.07;;
6356;SDS011;3211;53.452;-2.264;2024-03-22T07:41:17;22.77;;;3.93;;
6356;SDS011;3211;53.452;-2.264;2024-03-22T07:44:03;16.67;;;3.93;;
6356;SDS011;3211;53.452;-2.264;2024-03-22T07:46:50;16.53;;;3.90;;
6356;SDS011;3211;53.452;-2.264;2024-03-22T07:49:37;25.00;;;4.53;;
6356;SDS011;3211;53.452;-2.264;2024-03-22T07:52:24;17.53;;;4.60;;
6356;SDS011;3211;53.452;-2.264;2024-03-22T07:55:11;25.80;;;4.20;;
6356;SDS011;3211;53.452;-2.264;2024-03-22T07:57:59;22.33;;;3.90;;
6356;SDS011;3211;53.452;-2.264;2024-03-22T08:00:46;20.20;;;4.27;;
6356;SDS011;3211;53.452;-2.264;2024-03-22T08:03:33;23.87;;;4.70;;
6356;SDS011;3211;53.452;-2.264;2024-03-22T08:06:20;21.23;;;4.10;;
6356;SDS011;3211;53.452;-2.264;2024-03-22T08:09:07;30.20;;;5.23;;
6356;SDS011;3211;53.452;-2.264;2024-03-22T08:11:53;30.63;;;4.80;;
6356;SDS011;3211;53.452;-2.264;2024-03-22T08:14:42;18.67;;;4.77;;
6356;SDS011;3211;53.452;-2.264;2024-03-22T08:17:28;12.37;;;2.77;;
6356;SDS011;3211;53.452;-2.264;2024-03-22T08:20:15;21.03;;;4.67;;
6356;SDS011;3211;53.452;-2.264;2024-03-22T08:23:02;17.10;;;3.70;;
6356;SDS011;3211;53.452;-2.264;2024-03-22T08:25:49;24.03;;;4.17;;
6356;SDS011;3211;53.452;-2.264;2024-03-22T08:28:36;11.77;;;3.23;;
6356;SDS011;3211;53.452;-2.264;2024-03-22T08:31:25;13.67;;;3.17;;
6356;SDS011;3211;53.452;-2.264;2024-03-22T08:34:14;14.40;;;3.60;;
6356;SDS011;3211;53.452;-2.264;2024-03-22T08:37:00;13.50;;;3.73;;
6356;SDS011;3211;53.452;-2.264;2024-03-22T08:39:49;16.40;;;3.60;;
6356;SDS011;3211;53.452;-2.264;2024-03-22T08:42:35;13.17;;;3.00;;
6356;SDS011;3211;53.452;-2.264;2024-03-22T08:45:22;14.87;;;3.00;;
6356;SDS011;3211;53.452;-2.264;2024-03-22T08:48:10;18.07;;;3.00;;
6356;SDS011;3211;53.452;-2.264;2024-03-22T08:50:57;25.27;;;3.60;;
6356;SDS011;3211;53.452;-2.264;2024-03-22T08:53:44;19.80;;;3.33;;
6356;SDS011;3211;53.452;-2.264;2024-03-22T08:56:31;12.53;;;3.13;;
6356;SDS011;3211;53.452;-2.264;2024-03-22T08:59:17;16.87;;;4.63;;
6356;SDS011;3211;53.452;-2.264;2024-03-22T09:02:05;12.50;;;2.90;;
6356;SDS011;3211;53.452;-2.264;2024-03-22T09:04:53;15.70;;;3.33;;
6356;SDS011;3211;53.452;-2.264;2024-03-22T09:07:41;12.50;;;3.07;;
6356;SDS011;3211;53.452;-2.264;2024-03-22T09:10:27;13.00;;;2.93;;
6356;SDS011;3211;53.452;-2.264;2024-03-22T09:13:15;14.63;;;3.10;;
6356;SDS011;3211;53.452;-2.264;2024-03-22T09:16:01;14.97;;;3.77;;
6356;SDS011;3211;53.452;-2.264;2024-03-22T09:18:49;19.83;;;3.30;;
6356;SDS011;3211;53.452;-2.264;2024-03-22T09:21:36;15.97;;;2.80;;
6356;SDS011;3211;53.452;-2.264;2024-03-22T09:24:24;11.10;;;2.50;;
6356;SDS011;3211;53.452;-2.264;2024-03-22T09:27:10;10.40;;;2.30;;
6356;SDS011;3211;53.452;-2.264;2024-03-22T09:29:57;11.27;;;2.57;;
6356;SDS011;3211;53.452;-2.264;2024-03-22T09:32:43;12.23;;;2.90;;
6356;SDS011;3211;53.452;-2.264;2024-03-22T09:35:31;9.33;;;2.50;;
6356;SDS011;3211;53.452;-2.264;2024-03-22T09:38:20;5.50;;;2.20;;
6356;SDS011;3211;53.452;-2.264;2024-03-22T09:41:07;7.90;;;2.60;;
6356;SDS011;3211;53.452;-2.264;2024-03-22T09:43:53;11.33;;;2.90;;
6356;SDS011;3211;53.452;-2.264;2024-03-22T09:46:44;9.83;;;2.20;;
6356;SDS011;3211;53.452;-2.264;2024-03-22T09:49:31;9.27;;;2.50;;
6356;SDS011;3211;53.452;-2.264;2024-03-22T09:52:19;13.10;;;2.30;;
6356;SDS011;3211;53.452;-2.264;2024-03-22T09:55:08;8.43;;;2.33;;
6356;SDS011;3211;53.452;-2.264;2024-03-22T09:57:55;7.43;;;2.60;;
6356;SDS011;3211;53.452;-2.264;2024-03-22T10:00:42;6.37;;;2.70;;
6356;SDS011;3211;53.452;-2.264;2024-03-22T10:03:30;11.17;;;2.33;;
6356;SDS011;3211;53.452;-2.264;2024-03-22T10:06:16;9.93;;;2.63;;
6356;SDS011;3211;53.452;-2.264;2024-03-22T10:09:04;9.80;;;2.57;;
6356;SDS011;3211;53.452;-2.264;2024-03-22T10:11:52;8.67;;;3.27;;
6356;SDS011;3211;53.452;-2.264;2024-03-22T10:14:42;5.47;;;2.07;;
6356;SDS011;3211;53.452;-2.264;2024-03-22T10:17:28;6.53;;;2.17;;
6356;SDS011;3211;53.452;-2.264;2024-03-22T10:20:16;7.20;;;2.03;;
6356;SDS011;3211;53.452;-2.264;2024-03-22T10:23:02;12.73;;;2.80;;
6356;SDS011;3211;53.452;-2.264;2024-03-22T10:25:50;9.40;;;2.60;;
6356;SDS011;3211;53.452;-2.264;2024-03-22T10:28:37;12.07;;;2.80;;
6356;SDS011;3211;53.452;-2.264;2024-03-22T10:31:31;11.00;;;2.67;;
6356;SDS011;3211;53.452;-2.264;2024-03-22T10:34:17;13.77;;;2.40;;
6356;SDS011;3211;53.452;-2.264;2024-03-22T10:37:07;16.00;;;3.00;;
6356;SDS011;3211;53.452;-2.264;2024-03-22T10:39:55;12.03;;;2.80;;
6356;SDS011;3211;53.452;-2.264;2024-03-22T10:42:45;8.33;;;2.23;;
6356;SDS011;3211;53.452;-2.264;2024-03-22T10:45:32;9.17;;;2.20;;
6356;SDS011;3211;53.452;-2.264;2024-03-22T10:48:20;14.57;;;2.47;;
6356;SDS011;3211;53.452;-2.264;2024-03-22T10:51:09;11.27;;;2.50;;
6356;SDS011;3211;53.452;-2.264;2024-03-22T10:53:56;6.83;;;2.17;;
6356;SDS011;3211;53.452;-2.264;2024-03-22T10:56:45;10.57;;;2.33;;
6356;SDS011;3211;53.452;-2.264;2024-03-22T10:59:33;11.33;;;2.30;;
6356;SDS011;3211;53.452;-2.264;2024-03-22T11:02:21;5.70;;;2.20;;
6356;SDS011;3211;53.452;-2.264;2024-03-22T11:05:15;10.73;;;2.30;;
6356;SDS011;3211;53.452;-2.264;2024-03-22T11:08:03;8.00;;;1.93;;
6356;SDS011;3211;53.452;-2.264;2024-03-22T11:10:51;8.27;;;2.50;;
6356;SDS011;3211;53.452;-2.264;2024-03-22T11:13:38;13.60;;;2.60;;
6356;SDS011;3211;53.452;-2.264;2024-03-22T11:16:26;17.63;;;2.60;;
6356;SDS011;3211;53.452;-2.264;2024-03-22T11:19:13;7.77;;;2.23;;
6356;SDS011;3211;53.452;-2.264;2024-03-22T11:22:01;6.77;;;1.83;;
6356;SDS011;3211;53.452;-2.264;2024-03-22T11:24:51;9.90;;;2.93;;
6356;SDS011;3211;53.452;-2.264;2024-03-22T11:27:39;5.83;;;2.47;;
6356;SDS011;3211;53.452;-2.264;2024-03-22T11:30:25;10.77;;;2.60;;
6356;SDS011;3211;53.452;-2.264;2024-03-22T11:33:12;6.40;;;2.73;;
6356;SDS011;3211;53.452;-2.264;2024-03-22T11:36:01;4.00;;;1.67;;
6356;SDS011;3211;53.452;-2.264;2024-03-22T11:38:49;7.23;;;2.30;;
6356;SDS011;3211;53.452;-2.264;2024-03-22T11:41:38;5.27;;;1.83;;
6356;SDS011;3211;53.452;-2.264;2024-03-22T11:44:25;4.60;;;2.10;;
6356;SDS011;3211;53.452;-2.264;2024-03-22T11:47:12;9.10;;;2.40;;
6356;SDS011;3211;53.452;-2.264;2024-03-22T11:49:59;5.30;;;2.10;;
6356;SDS011;3211;53.452;-2.264;2024-03-22T11:52:48;8.57;;;2.03;;
6356;SDS011;3211;53.452;-2.264;2024-03-22T11:55:35;9.90;;;2.47;;
6356;SDS011;3211;53.452;-2.264;2024-03-22T11:58:22;5.77;;;2.10;;
6356;SDS011;3211;53.452;-2.264;2024-03-22T12:01:09;7.70;;;2.60;;
6356;SDS011;3211;53.452;-2.264;2024-03-22T12:03:55;6.77;;;1.93;;
6356;SDS011;3211;53.452;-2.264;2024-03-22T12:06:42;5.80;;;2.20;;
6356;SDS011;3211;53.452;-2.264;2024-03-22T12:09:31;8.50;;;2.20;;
6356;SDS011;3211;53.452;-2.264;2024-03-22T12:12:18;7.87;;;2.83;;
6356;SDS011;3211;53.452;-2.264;2024-03-22T12:15:07;8.13;;;2.20;;
6356;SDS011;3211;53.452;-2.264;2024-03-22T12:17:54;9.17;;;2.03;;
6356;SDS011;3211;53.452;-2.264;2024-03-22T12:20:42;10.90;;;2.30;;
6356;SDS011;3211;53.452;-2.264;2024-03-22T12:23:28;10.60;;;2.70;;
6356;SDS011;3211;53.452;-2.264;2024-03-22T12:26:16;5.30;;;1.77;;
6356;SDS011;3211;53.452;-2.264;2024-03-22T12:29:03;9.93;;;2.90;;
6356;SDS011;3211;53.452;-2.264;2024-03-22T12:31:50;10.83;;;2.80;;
6356;SDS011;3211;53.452;-2.264;2024-03-22T12:34:36;15.00;;;2.47;;
6356;SDS011;3211;53.452;-2.264;2024-03-22T12:37:24;7.70;;;2.13;;
6356;SDS011;3211;53.452;-2.264;2024-03-22T12:40:10;13.70;;;2.40;;
6356;SDS011;3211;53.452;-2.264;2024-03-22T12:43:00;10.40;;;2.60;;
6356;SDS011;3211;53.452;-2.264;2024-03-22T12:45:47;9.40;;;2.27;;
6356;SDS011;3211;53.452;-2.264;2024-03-22T12:48:34;5.80;;;2.17;;
6356;SDS011;3211;53.452;-2.264;2024-03-22T12:51:20;7.63;;;2.50;;
6356;SDS011;3211;53.452;-2.264;2024-03-22T12:54:08;9.87;;;2.63;;
6356;SDS011;3211;53.452;-2.264;2024-03-22T12:56:55;13.93;;;2.20;;
6356;SDS011;3211;53.452;-2.264;2024-03-22T12:59:43;10.33;;;2.10;;
6356;SDS011;3211;53.452;-2.264;2024-03-22T13:02:31;11.17;;;2.77;;
6356;SDS011;3211;53.452;-2.264;2024-03-22T13:05:19;10.57;;;2.43;;
6356;SDS011;3211;53.452;-2.264;2024-03-22T13:08:05;7.30;;;2.23;;
6356;SDS011;3211;53.452;-2.264;2024-03-22T13:10:52;9.40;;;2.53;;
6356;SDS011;3211;53.452;-2.264;2024-03-22T13:13:39;7.37;;;2.67;;
6356;SDS011;3211;53.452;-2.264;2024-03-22T13:16:27;15.20;;;2.70;;
6356;SDS011;3211;53.452;-2.264;2024-03-22T13:19:13;12.40;;;2.53;;
6356;SDS011;3211;53.452;-2.264;2024-03-22T13:22:01;12.40;;;3.13;;
6356;SDS011;3211;53.452;-2.264;2024-03-22T13:24:47;9.57;;;3.10;;
6356;SDS011;3211;53.452;-2.264;2024-03-22T13:27:35;7.13;;;2.60;;
6356;SDS011;3211;53.452;-2.264;2024-03-22T13:30:24;12.53;;;3.23;;
6356;SDS011;3211;53.452;-2.264;2024-03-22T13:33:14;5.40;;;2.10;;
6356;SDS011;3211;53.452;-2.264;2024-03-22T13:36:00;8.87;;;4.10;;
6356;SDS011;3211;53.452;-2.264;2024-03-22T13:38:47;7.20;;;2.50;;
6356;SDS011;3211;53.452;-2.264;2024-03-22T13:41:33;8.47;;;2.50;;
6356;SDS011;3211;53.452;-2.264;2024-03-22T13:44:21;5.10;;;2.10;;
6356;SDS011;3211;53.452;-2.264;2024-03-22T13:47:07;8.60;;;2.67;;
6356;SDS011;3211;53.452;-2.264;2024-03-22T13:49:55;7.33;;;2.03;;
6356;SDS011;3211;53.452;-2.264;2024-03-22T13:52:42;8.97;;;2.40;;
6356;SDS011;3211;53.452;-2.264;2024-03-22T13:55:29;7.70;;;2.40;;
6356;SDS011;3211;53.452;-2.264;2024-03-22T13:58:15;14.27;;;2.50;;
6356;SDS011;3211;53.452;-2.264;2024-03-22T14:01:03;8.67;;;2.83;;
6356;SDS011;3211;53.452;-2.264;2024-03-22T14:03:50;11.33;;;2.60;;
6356;SDS011;3211;53.452;-2.264;2024-03-22T14:06:39;3.73;;;1.73;;
6356;SDS011;3211;53.452;-2.264;2024-03-22T14:09:25;19.70;;;3.00;;
6356;SDS011;3211;53.452;-2.264;2024-03-22T14:12:12;10.30;;;2.93;;
6356;SDS011;3211;53.452;-2.264;2024-03-22T14:14:58;8.17;;;2.50;;
6356;SDS011;3211;53.452;-2.264;2024-03-22T14:17:45;15.10;;;2.77;;
6356;SDS011;3211;53.452;-2.264;2024-03-22T14:20:32;10.17;;;3.10;;
6356;SDS011;3211;53.452;-2.264;2024-03-22T14:23:20;7.60;;;2.40;;
6356;SDS011;3211;53.452;-2.264;2024-03-22T14:26:06;12.33;;;3.20;;
6356;SDS011;3211;53.452;-2.264;2024-03-22T14:28:55;9.20;;;2.70;;
6356;SDS011;3211;53.452;-2.264;2024-03-22T14:31:41;9.70;;;2.87;;
6356;SDS011;3211;53.452;-2.264;2024-03-22T14:34:29;12.60;;;2.30;;
6356;SDS011;3211;53.452;-2.264;2024-03-22T14:37:16;9.13;;;2.57;;
6356;SDS011;3211;53.452;-2.264;2024-03-22T14:40:05;5.93;;;2.20;;
6356;SDS011;3211;53.452;-2.264;2024-03-22T14:42:55;13.60;;;2.53;;
6356;SDS011;3211;53.452;-2.264;2024-03-22T14:45:42;12.87;;;2.37;;
6356;SDS011;3211;53.452;-2.264;2024-03-22T14:48:29;10.87;;;2.60;;
6356;SDS011;3211;53.452;-2.264;2024-03-22T14:51:16;12.47;;;2.60;;
6356;SDS011;3211;53.452;-2.264;2024-03-22T14:54:02;10.43;;;2.23;;
6356;SDS011;3211;53.452;-2.264;2024-03-22T14:56:51;6.87;;;2.20;;
6356;SDS011;3211;53.452;-2.264;2024-03-22T14:59:39;8.50;;;2.50;;
6356;SDS011;3211;53.452;-2.264;2024-03-22T15:02:26;4.37;;;1.93;;
6356;SDS011;3211;53.452;-2.264;2024-03-22T15:05:13;6.10;;;2.50;;
6356;SDS011;3211;53.452;-2.264;2024-03-22T15:08:00;10.23;;;2.00;;
6356;SDS011;3211;53.452;-2.264;2024-03-22T15:10:46;6.80;;;2.40;;
6356;SDS011;3211;53.452;-2.264;2024-03-22T15:13:35;5.57;;;2.30;;
6356;SDS011;3211;53.452;-2.264;2024-03-22T15:16:21;5.37;;;2.23;;
6356;SDS011;3211;53.452;-2.264;2024-03-22T15:19:09;7.87;;;2.13;;
6356;SDS011;3211;53.452;-2.264;2024-03-22T15:21:55;4.53;;;1.97;;
6356;SDS011;3211;53.452;-2.264;2024-03-22T15:24:42;8.53;;;1.93;;
6356;SDS011;3211;53.452;-2.264;2024-03-22T15:27:29;9.27;;;2.57;;
6356;SDS011;3211;53.452;-2.264;2024-03-22T15:30:18;4.53;;;1.80;;
6356;SDS011;3211;53.452;-2.264;2024-03-22T15:33:04;11.13;;;2.63;;
6356;SDS011;3211;53.452;-2.264;2024-03-22T15:35:52;8.20;;;3.03;;
6356;SDS011;3211;53.452;-2.264;2024-03-22T15:38:38;7.10;;;2.37;;
6356;SDS011;3211;53.452;-2.264;2024-03-22T15:41:26;6.20;;;2.67;;
6356;SDS011;3211;53.452;-2.264;2024-03-22T15:44:12;5.17;;;1.90;;
6356;SDS011;3211;53.452;-2.264;2024-03-22T15:47:01;8.73;;;2.03;;
6356;SDS011;3211;53.452;-2.264;2024-03-22T15:49:47;6.90;;;2.30;;
6356;SDS011;3211;53.452;-2.264;2024-03-22T15:52:34;6.80;;;2.00;;
6356;SDS011;3211;53.452;-2.264;2024-03-22T15:55:20;6.67;;;2.40;;
6356;SDS011;3211;53.452;-2.264;2024-03-22T15:58:09;5.20;;;2.20;;
6356;SDS011;3211;53.452;-2.264;2024-03-22T16:00:55;6.73;;;2.20;;
6356;SDS011;3211;53.452;-2.264;2024-03-22T16:03:44;10.10;;;2.87;;
6356;SDS011;3211;53.452;-2.264;2024-03-22T16:06:30;7.20;;;2.20;;
6356;SDS011;3211;53.452;-2.264;2024-03-22T16:09:17;7.53;;;2.37;;
6356;SDS011;3211;53.452;-2.264;2024-03-22T16:12:04;8.53;;;2.00;;
6356;SDS011;3211;53.452;-2.264;2024-03-22T16:14:52;12.50;;;2.57;;
6356;SDS011;3211;53.452;-2.264;2024-03-22T16:17:39;5.33;;;2.00;;
6356;SDS011;3211;53.452;-2.264;2024-03-22T16:20:28;7.60;;;1.93;;
6356;SDS011;3211;53.452;-2.264;2024-03-22T16:23:15;9.77;;;2.60;;
6356;SDS011;3211;53.452;-2.264;2024-03-22T16:26:02;4.70;;;2.03;;
6356;SDS011;3211;53.452;-2.264;2024-03-22T16:28:48;7.10;;;2.40;;
6356;SDS011;3211;53.452;-2.264;2024-03-22T16:31:36;7.13;;;1.80;;
6356;SDS011;3211;53.452;-2.264;2024-03-22T16:34:22;5.37;;;1.90;;
6356;SDS011;3211;53.452;-2.264;2024-03-22T16:37:10;6.47;;;1.97;;
6356;SDS011;3211;53.452;-2.264;2024-03-22T16:39:57;5.40;;;2.00;;
6356;SDS011;3211;53.452;-2.264;2024-03-22T16:42:44;5.73;;;1.77;;
6356;SDS011;3211;53.452;-2.264;2024-03-22T16:45:31;3.23;;;1.70;;
6356;SDS011;3211;53.452;-2.264;2024-03-22T16:48:18;9.57;;;2.53;;
6356;SDS011;3211;53.452;-2.264;2024-03-22T16:51:05;5.17;;;1.63;;
6356;SDS011;3211;53.452;-2.264;2024-03-22T16:53:53;7.20;;;1.70;;
6356;SDS011;3211;53.452;-2.264;2024-03-22T16:56:40;4.80;;;1.70;;